UATG 252200Z 24002MPS CAVOK 10/06 Q1016 NOSIG RMK QFE764/1019
QNH:(hPa/inHg/mmHg)1016 / 30 / 762
QFE:(hPa/inHg/mmHg)1019 / 30.08 / 764
Temperature10
Dew Point6
Visibility> 10000
WeatherCAVOK
Cloud Cover
Transition Altitude10000 ft.
Transition LevelFL110
SQUAWK